OISF  Fasa  Airport

Fasa, Iran

Add Bookmark
ICAO OISF
IATA FAZ
Type Airport
Status Operational
Latitude
28° 53' 30" N
28.891800
Longitude
53° 43' 23" E
53.723301
Local (DST + 5) UTC (GMT + 4)
May 23, 2015 10:13 May 23, 2015 05:43
Sunrise-Sunset Local UTC
Begin Civil Twilight 05:32 01:02
Sunrise 05:58 01:28
Sunset 07:45 15:15
End Civil Twilight 08:11 15:41
VFR
VFR
MVFR
MVFR
IFR
VFR
LIFR
VFR
Unknown
Unavailable

Current Weather

METAR Observed VFR
OISF 230450Z 11006KT CAVOK 29/01 Q1013 Sat, May 23, 2015 @ 04:50 UTC
(53 Minutes ago)
Visual Flight Rules
Wind Visibility Conditions
110° at 6 knots (11 kph) 10 km or more
  • No significant weather
Temperatures Readings Precipitation
Current Temp
29°C
84°F
Dewpoint
1°C
34°F
Humidity 16%
Altimeter 29.91" Hg
Sea Level Pressure 1,013 mb
Field Elevation
1,383 m
4,537 ft
None Recorded
-
-

CheckWX.com is intended as a tool to help pilots better visualize weather data. It is not intended as a substitute for an official weather briefing obtained from a Flight Service Station. CheckWX.com does not meet the FAA requirements for an official pre-flight weather briefing. Therefore, it's important that pilots still call and obtain an official FSS pre-flight weather briefing.

© 2007-2015 CheckWX.com
05:43:17 UTC